createdAt,value
2022-09-02T00:01:29.008Z,101582.53
2022-09-02T00:04:00.240Z,101572.72
2022-09-02T00:06:29.993Z,101585.19
2022-09-02T00:08:58.453Z,101582.44
2022-09-02T00:11:29.245Z,101583.38
2022-09-02T00:13:57.935Z,101576.44
2022-09-02T00:16:27.554Z,101574.69
2022-09-02T00:18:56.480Z,101569.41
2022-09-02T00:21:25.572Z,101575.03
2022-09-02T00:23:54.420Z,101578.34
2022-09-02T00:26:23.179Z,101572.97
2022-09-02T00:28:55.961Z,101573.03
2022-09-02T00:31:25.522Z,101568.69
2022-09-02T00:33:54.819Z,101572.28
2022-09-02T00:36:22.998Z,101574.00
2022-09-02T00:38:50.979Z,101560.81
2022-09-02T00:41:22.466Z,101566.22
2022-09-02T00:43:53.155Z,101564.53
2022-09-02T00:46:24.066Z,101564.63
2022-09-02T00:48:59.579Z,101562.06
2022-09-02T00:51:30.150Z,101564.66
2022-09-02T00:53:58.227Z,101564.78
2022-09-02T00:56:30.999Z,101568.41
2022-09-02T00:59:01.036Z,101566.72
2022-09-02T01:01:29.628Z,101565.84
2022-09-02T01:03:59.523Z,101573.94
2022-09-02T01:06:32.941Z,101571.22
2022-09-02T01:09:08.482Z,101559.78
2022-09-02T01:11:43.115Z,101561.56
2022-09-02T01:14:13.747Z,101558.19
2022-09-02T01:16:45.015Z,101551.16
2022-09-02T01:19:21.147Z,101551.19
2022-09-02T01:21:50.961Z,101546.78
2022-09-02T01:24:21.116Z,101547.72
2022-09-02T01:26:52.913Z,101547.78
2022-09-02T01:29:22.916Z,101546.22
2022-09-02T01:31:51.443Z,101542.75
2022-09-02T01:34:19.629Z,101552.50
2022-09-02T01:36:48.006Z,101548.13
2022-09-02T01:39:18.300Z,101546.50
2022-09-02T01:41:46.491Z,101539.38
2022-09-02T01:44:16.203Z,101543.84
2022-09-02T01:46:46.179Z,101535.78
2022-09-02T01:49:15.027Z,101535.81
2022-09-02T01:51:42.999Z,101531.44
2022-09-02T01:54:12.481Z,101537.72
2022-09-02T01:56:41.810Z,101532.38
2022-09-02T01:59:11.721Z,101521.94
2022-09-02T02:01:39.756Z,101520.16
2022-09-02T02:04:12.686Z,101525.56
2022-09-02T02:06:43.644Z,101522.03
2022-09-02T02:09:12.461Z,101514.09
2022-09-02T02:11:41.772Z,101507.00
2022-09-02T02:14:09.735Z,101511.59
2022-09-02T02:16:38.802Z,101513.41
2022-09-02T02:19:07.317Z,101511.63
2022-09-02T02:21:35.307Z,101508.16
2022-09-02T02:24:03.584Z,101509.88
2022-09-02T02:26:31.931Z,101511.81
2022-09-02T02:29:01.798Z,101511.88
2022-09-02T02:31:30.037Z,101515.34
2022-09-02T02:33:58.104Z,101509.19
2022-09-02T02:36:26.010Z,101520.84
2022-09-02T02:38:53.931Z,101514.66
2022-09-02T02:41:22.433Z,101512.81
2022-09-02T02:43:50.933Z,101516.41
2022-09-02T02:46:20.623Z,101508.41
2022-09-02T02:48:49.360Z,101515.72
2022-09-02T02:51:17.671Z,101507.69
2022-09-02T02:53:47.497Z,101513.00
2022-09-02T02:56:15.462Z,101514.03
2022-09-02T02:58:43.556Z,101505.13
2022-09-02T03:01:11.867Z,101506.00
2022-09-02T03:03:42.630Z,101503.38
2022-09-02T03:06:10.957Z,101504.25
2022-09-02T03:08:38.868Z,101500.94
2022-09-02T03:11:08.617Z,101505.47
2022-09-02T03:13:40.525Z,101498.34
2022-09-02T03:16:08.688Z,101502.72
2022-09-02T03:18:36.750Z,101501.94
2022-09-02T03:21:10.272Z,101492.13
2022-09-02T03:23:38.822Z,101496.78
2022-09-02T03:26:11.254Z,101491.38
2022-09-02T03:28:40.219Z,101495.00
2022-09-02T03:31:14.437Z,101493.38
2022-09-02T03:33:42.528Z,101489.81
2022-09-02T03:36:23.178Z,101488.06
2022-09-02T03:38:52.148Z,101482.81
2022-09-02T03:41:20.241Z,101489.00
2022-09-02T03:43:49.561Z,101491.75
2022-09-02T03:46:18.244Z,101489.13
2022-09-02T03:48:47.007Z,101482.06
2022-09-02T03:51:15.272Z,101490.06
2022-09-02T03:53:44.616Z,101483.06
2022-09-02T03:56:15.457Z,101478.66
2022-09-02T03:58:44.752Z,101480.41
2022-09-02T04:01:15.967Z,101486.63
2022-09-02T04:03:44.885Z,101483.16
2022-09-02T04:06:14.109Z,101482.31
2022-09-02T04:08:45.026Z,101485.03
2022-09-02T04:11:16.486Z,101481.47
2022-09-02T04:13:47.600Z,101491.34
2022-09-02T04:16:21.494Z,101492.19
2022-09-02T04:18:49.581Z,101487.81
2022-09-02T04:21:17.785Z,101492.25
2022-09-02T04:23:47.314Z,101490.50
2022-09-02T04:26:18.086Z,101494.00
2022-09-02T04:28:46.938Z,101493.25
2022-09-02T04:31:17.709Z,101494.97
2022-09-02T04:33:46.571Z,101487.06
2022-09-02T04:36:19.951Z,101492.41
2022-09-02T04:38:51.796Z,101484.44
2022-09-02T04:41:24.883Z,101487.94
2022-09-02T04:43:57.634Z,101486.31
2022-09-02T04:46:34.810Z,101496.00
2022-09-02T04:49:06.031Z,101490.63
2022-09-02T04:51:34.984Z,101492.44
2022-09-02T04:54:08.014Z,101489.75
2022-09-02T04:56:38.325Z,101490.59
2022-09-02T04:59:07.231Z,101492.41
2022-09-02T05:01:38.661Z,101490.66
2022-09-02T05:04:13.030Z,101496.91
2022-09-02T05:06:47.310Z,101495.91
2022-09-02T05:09:23.070Z,101493.16
2022-09-02T05:11:57.661Z,101494.00
2022-09-02T05:14:29.554Z,101500.16
2022-09-02T05:17:07.248Z,101490.50
2022-09-02T05:19:37.947Z,101493.06
2022-09-02T05:22:06.218Z,101485.84
2022-09-02T05:24:39.845Z,101485.78
2022-09-02T05:27:11.657Z,101484.00
2022-09-02T05:29:42.969Z,101489.19
2022-09-02T05:32:13.535Z,101483.03
2022-09-02T05:34:41.796Z,101481.25
2022-09-02T05:37:10.109Z,101483.97
2022-09-02T05:39:39.595Z,101479.56
2022-09-02T05:42:08.966Z,101485.63
2022-09-02T05:44:38.124Z,101481.91
2022-09-02T05:47:07.587Z,101484.56
2022-09-02T05:49:35.808Z,101481.91
2022-09-02T05:52:11.946Z,101480.88
2022-09-02T05:54:51.048Z,101486.09
2022-09-02T05:57:21.825Z,101474.50
2022-09-02T06:00:02.882Z,101475.31
2022-09-02T06:02:42.987Z,101475.19
2022-09-02T06:05:29.620Z,101480.41
2022-09-02T06:08:06.542Z,101482.03
2022-09-02T06:10:36.310Z,101473.16
2022-09-02T06:13:04.560Z,101480.16
2022-09-02T06:15:34.990Z,101481.88
2022-09-02T06:18:03.551Z,101483.53
2022-09-02T06:20:34.423Z,101479.91
2022-09-02T06:23:04.203Z,101488.56
2022-09-02T06:25:32.613Z,101483.09
2022-09-02T06:28:06.422Z,101485.78
2022-09-02T06:30:40.225Z,101481.03
2022-09-02T06:33:09.200Z,101480.09
2022-09-02T06:35:39.245Z,101482.66
2022-09-02T06:38:10.981Z,101479.13
2022-09-02T06:40:48.045Z,101472.88
2022-09-02T06:43:18.498Z,101479.66
2022-09-02T06:46:15.249Z,101480.41
2022-09-02T06:48:44.419Z,101482.09
2022-09-02T06:51:17.820Z,101486.31
2022-09-02T06:53:48.671Z,101482.53
2022-09-02T06:56:18.145Z,101492.06
2022-09-02T06:58:47.383Z,101488.50
2022-09-02T07:01:20.656Z,101487.44
2022-09-02T07:04:06.566Z,101478.34
2022-09-02T07:06:36.901Z,101484.47
2022-09-02T07:09:06.239Z,101486.03
2022-09-02T07:11:35.702Z,101476.91
2022-09-02T07:14:07.496Z,101478.81
2022-09-02T07:16:39.279Z,101471.66
2022-09-02T07:19:12.084Z,101475.78
2022-09-02T07:21:42.943Z,101475.63
2022-09-02T07:24:13.225Z,101477.16
2022-09-02T07:26:43.010Z,101470.75
2022-09-02T07:29:12.788Z,101483.09
2022-09-02T07:31:43.815Z,101487.34
2022-09-02T07:34:13.080Z,101482.59
2022-09-02T07:36:42.738Z,101474.34
2022-09-02T07:39:12.707Z,101472.28
2022-09-02T07:41:42.793Z,101472.94
2022-09-02T07:44:13.110Z,101474.44
2022-09-02T07:46:42.408Z,101472.56
2022-09-02T07:49:22.063Z,101464.06
2022-09-02T07:51:52.619Z,101467.31
2022-09-02T07:54:26.160Z,101466.31
2022-09-02T07:56:56.114Z,101463.34
2022-09-02T07:59:26.264Z,101460.28
2022-09-02T08:01:58.792Z,101457.41
2022-09-02T08:04:27.497Z,101467.75
2022-09-02T08:06:57.536Z,101459.38
2022-09-02T08:09:25.653Z,101466.25
2022-09-02T08:11:53.907Z,101461.59
2022-09-02T08:14:29.621Z,101448.50
2022-09-02T08:16:59.553Z,101463.47
2022-09-02T08:19:28.559Z,101458.72
2022-09-02T08:21:57.370Z,101459.31
2022-09-02T08:24:25.600Z,101467.69
2022-09-02T08:26:53.506Z,101449.78
2022-09-02T08:29:25.123Z,101453.84
2022-09-02T08:31:54.630Z,101460.66
2022-09-02T08:34:22.870Z,101453.81
2022-09-02T08:36:56.443Z,101450.69
2022-09-02T08:39:25.642Z,101447.84
2022-09-02T08:42:03.789Z,101449.34
2022-09-02T08:44:35.424Z,101440.25
2022-09-02T08:47:07.999Z,101440.75
2022-09-02T08:49:40.290Z,101436.84
2022-09-02T08:52:08.388Z,101432.53
2022-09-02T08:54:43.425Z,101429.63
2022-09-02T08:57:12.002Z,101430.78
2022-09-02T09:02:21.580Z,101429.84
2022-09-02T09:05:19.449Z,101432.53
2022-09-02T09:08:00.694Z,101427.75
2022-09-02T09:10:38.935Z,101428.50
2022-09-02T09:13:42.576Z,101420.03
2022-09-02T09:16:18.903Z,101420.25
2022-09-02T09:18:56.357Z,101412.50
2022-09-02T09:24:01.757Z,101403.84
2022-09-02T09:26:33.889Z,101404.56
2022-09-02T09:29:05.403Z,101398.53
2022-09-02T09:31:35.605Z,101398.06
2022-09-02T09:34:07.404Z,101391.25
2022-09-02T09:36:46.415Z,101394.97
2022-09-02T09:39:26.450Z,101386.72
2022-09-02T09:41:56.181Z,101378.66
2022-09-02T09:44:44.665Z,101369.94
2022-09-02T09:47:19.469Z,101376.75
2022-09-02T09:49:50.185Z,101375.16
2022-09-02T09:52:28.966Z,101360.72
2022-09-02T09:55:22.824Z,101362.44
2022-09-02T09:57:54.665Z,101361.31
2022-09-02T10:00:27.996Z,101366.88
2022-09-02T10:02:58.121Z,101352.63
2022-09-02T10:05:34.288Z,101366.22
2022-09-02T10:08:04.098Z,101360.97
2022-09-02T10:10:38.068Z,101350.94
2022-09-02T10:13:22.901Z,101348.56
2022-09-02T10:16:02.481Z,101341.09
2022-09-02T10:18:36.914Z,101340.22
2022-09-02T10:21:14.975Z,101331.78
2022-09-02T10:23:53.570Z,101341.63
2022-09-02T10:26:33.878Z,101337.63
2022-09-02T10:29:42.972Z,101330.16
2022-09-02T10:32:39.577Z,101325.88
2022-09-02T10:35:13.923Z,101317.72
2022-09-02T10:38:16.456Z,101320.50
2022-09-02T10:40:47.148Z,101309.63
2022-09-02T10:43:29.924Z,101313.03
2022-09-02T10:46:01.721Z,101312.13
2022-09-02T10:48:42.765Z,101305.31
2022-09-02T10:51:21.799Z,101309.53
2022-09-02T10:54:04.966Z,101298.06
2022-09-02T10:56:39.046Z,101294.22
2022-09-02T10:59:11.079Z,101294.75
2022-09-02T11:01:46.574Z,101300.16
2022-09-02T11:04:21.069Z,101299.97
2022-09-02T11:07:03.231Z,101287.75
2022-09-02T11:09:37.415Z,101290.16
2022-09-02T11:12:11.050Z,101276.44
2022-09-02T11:14:51.076Z,101279.53
2022-09-02T11:17:24.523Z,101276.38
2022-09-02T11:20:00.314Z,101271.34
2022-09-02T11:22:37.094Z,101268.84
2022-09-02T11:25:09.669Z,101266.69
2022-09-02T11:27:43.340Z,101271.19
2022-09-02T11:30:14.962Z,101266.59
2022-09-02T11:32:48.480Z,101266.19
2022-09-02T11:35:24.584Z,101261.09
2022-09-02T11:37:57.285Z,101267.53
2022-09-02T11:40:34.952Z,101263.00
2022-09-02T11:43:23.986Z,101254.25
2022-09-02T11:46:27.079Z,101259.31
2022-09-02T11:49:17.433Z,101254.84
2022-09-02T11:52:32.996Z,101261.94
2022-09-02T11:55:09.141Z,101247.28
2022-09-02T11:57:41.515Z,101246.84
2022-09-02T12:00:15.048Z,101256.56
2022-09-02T12:02:46.301Z,101255.16
2022-09-02T12:05:51.988Z,101252.41
2022-09-02T12:08:57.648Z,101249.97
2022-09-02T12:11:45.391Z,101236.84
2022-09-02T12:15:06.099Z,101246.09
2022-09-02T12:17:40.945Z,101241.28
2022-09-02T12:20:11.531Z,101238.88
2022-09-02T12:22:40.624Z,101234.44
2022-09-02T12:25:47.147Z,101218.91
2022-09-02T12:28:21.467Z,101216.13
2022-09-02T12:31:15.621Z,101199.53
2022-09-02T12:33:45.377Z,101201.84
2022-09-02T12:36:47.047Z,101206.69
2022-09-02T12:39:46.539Z,101205.13
2022-09-02T12:42:24.265Z,101208.88
2022-09-02T12:45:02.433Z,101210.91
2022-09-02T12:47:44.948Z,101192.22
2022-09-02T12:50:23.065Z,101187.38
2022-09-02T12:52:52.569Z,101200.78
2022-09-02T12:55:25.278Z,101185.97
2022-09-02T12:58:06.108Z,101182.00
2022-09-02T13:00:40.916Z,101189.00
2022-09-02T13:03:29.999Z,101186.19
2022-09-02T13:06:05.734Z,101179.72
2022-09-02T13:09:30.843Z,101176.22
2022-09-02T13:12:25.182Z,101168.13
2022-09-02T13:15:06.663Z,101170.59
2022-09-02T13:17:48.429Z,101168.22
2022-09-02T13:20:57.619Z,101165.31
2022-09-02T13:24:07.646Z,101158.56
2022-09-02T13:26:53.895Z,101155.13
2022-09-02T13:29:53.720Z,101151.88
2022-09-02T13:32:24.938Z,101152.75
2022-09-02T13:34:56.027Z,101146.66
2022-09-02T13:37:36.607Z,101147.22
2022-09-02T13:40:17.701Z,101149.41
2022-09-02T13:42:49.735Z,101150.22
2022-09-02T13:45:23.766Z,101140.44
2022-09-02T13:47:53.338Z,101135.19
2022-09-02T13:50:24.093Z,101136.81
2022-09-02T13:53:45.213Z,101137.88
2022-09-02T13:55:50.700Z,101125.59
2022-09-02T13:58:32.266Z,101119.41
2022-09-02T14:01:19.535Z,101124.50
2022-09-02T14:03:50.236Z,101113.75
2022-09-02T14:06:20.703Z,101117.34
2022-09-02T14:08:54.000Z,101109.66
2022-09-02T14:11:23.723Z,101110.84
2022-09-02T14:13:52.865Z,101116.31
2022-09-02T14:16:29.400Z,101109.81
2022-09-02T14:19:09.020Z,101113.34
2022-09-02T14:21:38.037Z,101094.84
2022-09-02T14:24:06.570Z,101095.69
2022-09-02T14:26:39.283Z,101092.28
2022-09-02T14:29:09.019Z,101102.66
2022-09-02T14:31:37.986Z,101092.97
2022-09-02T14:34:25.947Z,101100.31
2022-09-02T14:36:54.063Z,101097.72
2022-09-02T14:39:22.074Z,101103.81
2022-09-02T14:41:53.313Z,101094.91
2022-09-02T14:44:28.791Z,101089.31
2022-09-02T14:46:59.750Z,101097.13
2022-09-02T14:49:31.055Z,101091.56
2022-09-02T14:52:00.717Z,101089.72
2022-09-02T14:54:37.326Z,101088.88
2022-09-02T14:57:08.317Z,101082.75
2022-09-02T14:59:36.263Z,101085.59
2022-09-02T15:02:04.315Z,101089.31
2022-09-02T15:04:35.572Z,101086.19
2022-09-02T15:07:03.507Z,101082.63
2022-09-02T15:09:31.553Z,101086.94
2022-09-02T15:12:02.677Z,101083.91
2022-09-02T15:14:32.419Z,101080.03
2022-09-02T15:17:00.610Z,101080.34
2022-09-02T15:19:28.513Z,101090.72
2022-09-02T15:21:56.618Z,101078.25
2022-09-02T15:24:24.488Z,101078.81
2022-09-02T15:26:52.800Z,101072.78
2022-09-02T15:29:25.111Z,101075.06
2022-09-02T15:31:59.894Z,101076.78
2022-09-02T15:34:28.233Z,101086.94
2022-09-02T15:36:57.316Z,101070.31
2022-09-02T15:39:25.965Z,101064.25
2022-09-02T15:41:55.412Z,101074.53
2022-09-02T15:44:25.820Z,101068.75
2022-09-02T15:46:54.707Z,101067.16
2022-09-02T15:49:24.748Z,101056.75
2022-09-02T15:51:54.863Z,101066.75
2022-09-02T15:54:25.123Z,101057.13
2022-09-02T15:56:56.990Z,101068.41
2022-09-02T15:59:25.155Z,101053.34
2022-09-02T16:01:55.250Z,101062.44
2022-09-02T16:04:24.799Z,101058.69
2022-09-02T16:06:53.442Z,101057.72
2022-09-02T16:09:21.905Z,101045.28
2022-09-02T16:11:52.420Z,101037.81
2022-09-02T16:14:21.632Z,101037.28
2022-09-02T16:16:50.863Z,101026.66
2022-09-02T16:19:20.827Z,101030.56
2022-09-02T16:21:50.655Z,101025.63
2022-09-02T16:24:21.451Z,101031.75
2022-09-02T16:26:50.305Z,101024.47
2022-09-02T16:29:19.548Z,101020.19
2022-09-02T16:32:02.339Z,101014.78
2022-09-02T16:34:38.345Z,101009.47
2022-09-02T16:37:07.639Z,101017.84
2022-09-02T16:39:35.675Z,101012.00
2022-09-02T16:42:04.605Z,101008.34
2022-09-02T16:44:34.010Z,101016.94
2022-09-02T16:47:02.290Z,101009.44
2022-09-02T16:49:30.181Z,101007.53
2022-09-02T16:52:00.000Z,101016.31
2022-09-02T16:54:31.490Z,101013.19
2022-09-02T16:57:01.225Z,101014.03
2022-09-02T16:59:31.480Z,101014.50
2022-09-02T17:01:59.590Z,101015.09
2022-09-02T17:04:27.809Z,101002.75
2022-09-02T17:06:57.707Z,101009.38
2022-09-02T17:09:25.990Z,101010.72
2022-09-02T17:11:55.560Z,100996.69
2022-09-02T17:14:23.705Z,101009.25
2022-09-02T17:16:52.974Z,100994.75
2022-09-02T17:19:22.653Z,101011.84
2022-09-02T17:21:52.303Z,101016.78
2022-09-02T17:24:22.503Z,101015.69
2022-09-02T17:26:54.292Z,101012.09
2022-09-02T17:29:48.075Z,101013.84
2022-09-02T17:32:13.415Z,101019.50
2022-09-02T17:34:41.236Z,101027.41
2022-09-02T17:37:09.193Z,101010.78
2022-09-02T17:39:37.143Z,101026.75
2022-09-02T17:42:05.322Z,101016.25
2022-09-02T17:44:38.801Z,101022.91
2022-09-02T17:47:09.026Z,101028.97
2022-09-02T17:49:38.857Z,101026.00
2022-09-02T17:52:08.245Z,101038.69
2022-09-02T17:54:37.222Z,101029.91
2022-09-02T17:57:17.541Z,101038.50
2022-09-02T18:00:02.887Z,101033.09
2022-09-02T18:03:19.119Z,101029.69
2022-09-02T18:06:00.977Z,101042.38
2022-09-02T18:08:36.892Z,101045.00
2022-09-02T18:11:07.431Z,101038.63
2022-09-02T18:13:48.008Z,101047.22
2022-09-02T18:16:30.577Z,101049.25
2022-09-02T18:19:13.115Z,101052.78
2022-09-02T18:22:05.827Z,101047.50
2022-09-02T18:24:52.378Z,101052.22
2022-09-02T18:27:31.245Z,101054.47
2022-09-02T18:30:06.551Z,101057.22
2022-09-02T18:33:06.602Z,101063.94
2022-09-02T18:35:45.878Z,101065.41
2022-09-02T18:38:28.009Z,101067.13
2022-09-02T18:41:11.744Z,101069.38
2022-09-02T18:43:51.446Z,101068.75
2022-09-02T18:46:22.534Z,101068.31
2022-09-02T18:48:56.838Z,101075.44
2022-09-02T18:51:35.041Z,101082.50
2022-09-02T18:54:13.121Z,101077.06
2022-09-02T18:56:46.002Z,101087.19
2022-09-02T18:59:17.594Z,101087.84
2022-09-02T19:01:54.820Z,101086.25
2022-09-02T19:04:29.377Z,101093.38
2022-09-02T19:07:17.979Z,101104.63
2022-09-02T19:09:45.068Z,101093.66
2022-09-02T19:12:14.520Z,101099.09
2022-09-02T19:14:42.888Z,101094.97
2022-09-02T19:17:12.702Z,101103.00
2022-09-02T19:19:42.130Z,101107.00
2022-09-02T19:22:12.051Z,101108.91
2022-09-02T19:24:43.988Z,101106.50
2022-09-02T19:27:16.420Z,101112.13
2022-09-02T19:29:51.206Z,101121.19
2022-09-02T19:32:25.781Z,101117.94
2022-09-02T19:34:55.219Z,101120.53
2022-09-02T19:37:23.856Z,101117.44
2022-09-02T19:39:54.064Z,101120.50
2022-09-02T19:42:24.090Z,101115.00
2022-09-02T19:44:52.538Z,101119.66
2022-09-02T19:48:04.991Z,101120.97
2022-09-02T19:50:10.026Z,101125.47
2022-09-02T19:52:42.120Z,101131.06
2022-09-02T19:55:11.663Z,101128.63
2022-09-02T19:57:39.643Z,101134.06
2022-09-02T20:00:09.141Z,101132.75
2022-09-02T20:02:40.141Z,101131.97
2022-09-02T20:05:11.433Z,101129.56
2022-09-02T20:07:39.469Z,101129.72
2022-09-02T20:10:08.655Z,101136.97
2022-09-02T20:12:37.417Z,101140.88
2022-09-02T20:15:07.326Z,101135.44
2022-09-02T20:17:35.617Z,101129.50
2022-09-02T20:20:13.222Z,101134.06
2022-09-02T20:22:41.427Z,101137.81
2022-09-02T20:25:10.403Z,101142.19
2022-09-02T20:27:54.870Z,101142.44
2022-09-02T20:30:23.196Z,101153.53
2022-09-02T20:32:58.598Z,101147.50
2022-09-02T20:35:49.712Z,101149.19
2022-09-02T20:38:50.716Z,101152.06
2022-09-02T20:41:29.068Z,101154.09
2022-09-02T20:44:31.515Z,101160.47
2022-09-02T20:47:24.475Z,101151.53
2022-09-02T20:50:15.161Z,101172.28
2022-09-02T20:52:58.696Z,101160.09
2022-09-02T20:55:32.414Z,101162.09
2022-09-02T20:58:17.082Z,101161.19
2022-09-02T21:00:59.162Z,101165.63
2022-09-02T21:03:31.753Z,101161.34
2022-09-02T21:06:01.211Z,101161.88
2022-09-02T21:08:40.006Z,101153.91
2022-09-02T21:11:14.747Z,101159.22
2022-09-02T21:13:50.187Z,101159.22
2022-09-02T21:16:28.125Z,101156.75
2022-09-02T21:19:06.529Z,101153.59
2022-09-02T21:21:40.739Z,101152.59
2022-09-02T21:24:15.393Z,101149.16
2022-09-02T21:26:49.152Z,101156.13
2022-09-02T21:29:21.682Z,101148.63
2022-09-02T21:31:54.923Z,101153.44
2022-09-02T21:34:28.793Z,101154.63
2022-09-02T21:36:58.832Z,101149.44
2022-09-02T21:39:32.366Z,101149.44
2022-09-02T21:42:11.032Z,101145.09
2022-09-02T21:44:53.695Z,101150.31
2022-09-02T21:47:25.599Z,101146.16
2022-09-02T21:50:07.305Z,101144.56
2022-09-02T21:52:49.645Z,101145.41
2022-09-02T21:55:32.342Z,101146.66
2022-09-02T21:58:19.385Z,101138.56
2022-09-02T22:00:54.387Z,101135.81
2022-09-02T22:03:37.058Z,101139.63
2022-09-02T22:06:12.435Z,101134.59
2022-09-02T22:08:50.464Z,101142.69
2022-09-02T22:11:27.667Z,101139.09
2022-09-02T22:13:59.332Z,101129.50
2022-09-02T22:16:39.334Z,101137.63
2022-09-02T22:19:09.981Z,101124.50
2022-09-02T22:21:48.453Z,101129.03
2022-09-02T22:24:17.719Z,101127.41
2022-09-02T22:26:52.423Z,101124.75
2022-09-02T22:29:29.072Z,101130.22
2022-09-02T22:32:01.514Z,101128.59
2022-09-02T22:34:34.679Z,101124.50
2022-09-02T22:37:07.714Z,101123.53
2022-09-02T22:39:40.946Z,101127.19
2022-09-02T22:42:21.445Z,101114.78
2022-09-02T22:45:12.913Z,101123.19
2022-09-02T22:48:03.705Z,101127.66
2022-09-02T22:50:56.501Z,101116.19
2022-09-02T22:53:24.505Z,101127.94
2022-09-02T22:56:03.906Z,101116.41
2022-09-02T22:58:47.594Z,101119.13
2022-09-02T23:01:20.865Z,101106.56
2022-09-02T23:04:00.065Z,101115.75
2022-09-02T23:06:30.350Z,101109.91
2022-09-02T23:09:08.411Z,101117.97
2022-09-02T23:11:44.021Z,101117.09
2022-09-02T23:14:26.679Z,101114.38
2022-09-02T23:17:23.678Z,101111.81
2022-09-02T23:20:07.102Z,101117.53
2022-09-02T23:22:49.134Z,101119.34
2022-09-02T23:25:53.345Z,101111.44
2022-09-02T23:28:32.077Z,101097.50
2022-09-02T23:31:09.365Z,101111.44
2022-09-02T23:33:54.482Z,101104.75
2022-09-02T23:36:35.163Z,101112.53
2022-09-02T23:39:15.763Z,101103.06
2022-09-02T23:41:47.410Z,101105.50
2022-09-02T23:44:16.514Z,101103.81
2022-09-02T23:47:11.174Z,101099.56
2022-09-02T23:49:46.784Z,101090.97
2022-09-02T23:52:26.758Z,101089.00
2022-09-02T23:55:05.086Z,101092.53
2022-09-02T23:57:58.973Z,101093.75
